createdAt,value
2018-10-17T00:01:10.387Z,14.57
2018-10-17T00:03:38.389Z,14.83
2018-10-17T00:06:06.457Z,15.43
2018-10-17T00:08:34.529Z,15.07
2018-10-17T00:11:03.796Z,13.80
2018-10-17T00:13:33.186Z,14.93
2018-10-17T00:16:01.247Z,15.53
2018-10-17T00:18:29.265Z,15.33
2018-10-17T00:20:59.265Z,16.27
2018-10-17T00:23:28.053Z,16.37
2018-10-17T00:25:56.112Z,15.87
2018-10-17T00:28:24.371Z,15.77
2018-10-17T00:30:52.425Z,16.73
2018-10-17T00:33:20.467Z,12.67
2018-10-17T00:35:48.533Z,16.77
2018-10-17T00:38:16.666Z,17.07
2018-10-17T00:40:44.710Z,16.13
2018-10-17T00:43:12.804Z,16.73
2018-10-17T00:45:40.815Z,15.30
2018-10-17T00:48:08.864Z,16.87
2018-10-17T00:50:36.996Z,17.33
2018-10-17T00:53:05.122Z,17.77
2018-10-17T00:55:33.099Z,17.23
2018-10-17T00:58:01.181Z,17.33
2018-10-17T01:00:29.232Z,17.37
2018-10-17T01:02:57.282Z,14.87
2018-10-17T01:05:25.321Z,16.00
2018-10-17T01:07:53.369Z,16.33
2018-10-17T01:10:21.419Z,15.63
2018-10-17T01:12:56.321Z,16.40
2018-10-17T01:15:24.346Z,15.43
2018-10-17T01:17:52.446Z,15.73
2018-10-17T01:20:20.864Z,14.93
2018-10-17T01:22:48.907Z,15.93
2018-10-17T01:25:17.108Z,15.83
2018-10-17T01:27:45.173Z,16.30
2018-10-17T01:32:46.705Z,17.77
2018-10-17T01:35:14.913Z,16.67
2018-10-17T01:37:42.938Z,17.20
2018-10-17T01:40:11.005Z,16.63
2018-10-17T01:42:40.247Z,14.57
2018-10-17T01:45:08.313Z,16.67
2018-10-17T01:47:36.428Z,16.23
2018-10-17T01:50:05.289Z,16.33
2018-10-17T01:52:33.307Z,16.93
2018-10-17T01:55:01.642Z,16.03
2018-10-17T01:57:29.853Z,16.10
2018-10-17T01:59:57.879Z,17.17
2018-10-17T02:02:26.010Z,15.93
2018-10-17T02:04:54.110Z,15.60
2018-10-17T02:07:22.238Z,16.67
2018-10-17T02:09:50.281Z,15.70
2018-10-17T02:12:18.489Z,15.70
2018-10-17T02:14:46.541Z,15.70
2018-10-17T02:17:14.882Z,16.10
2018-10-17T02:19:42.765Z,15.80
2018-10-17T02:22:10.793Z,15.60
2018-10-17T02:24:38.856Z,14.80
2018-10-17T02:27:06.885Z,15.13
2018-10-17T02:29:34.933Z,16.30
2018-10-17T02:32:03.044Z,15.97
2018-10-17T02:34:31.129Z,14.63
2018-10-17T02:36:59.241Z,15.07
2018-10-17T02:39:29.643Z,14.40
2018-10-17T02:41:57.901Z,13.73
2018-10-17T02:44:25.931Z,14.60
2018-10-17T02:46:54.018Z,14.53
2018-10-17T02:49:22.046Z,15.17
2018-10-17T02:51:50.077Z,15.70
2018-10-17T02:54:18.158Z,15.33
2018-10-17T02:56:46.265Z,14.20
2018-10-17T02:59:14.529Z,15.23
2018-10-17T03:01:42.379Z,15.00
2018-10-17T03:04:10.441Z,14.97
2018-10-17T03:06:38.513Z,14.70
2018-10-17T03:09:07.401Z,15.77
2018-10-17T03:11:35.470Z,15.27
2018-10-17T03:14:03.597Z,12.70
2018-10-17T03:16:31.808Z,15.07
2018-10-17T03:18:59.906Z,14.23
2018-10-17T03:21:27.961Z,14.20
2018-10-17T03:23:56.037Z,15.00
2018-10-17T03:26:24.137Z,15.23
2018-10-17T03:28:52.158Z,15.90
2018-10-17T03:31:20.247Z,15.87
2018-10-17T03:33:48.276Z,15.60
2018-10-17T03:36:16.451Z,14.60
2018-10-17T03:38:44.532Z,16.20
2018-10-17T03:41:13.073Z,14.37
2018-10-17T03:43:41.213Z,15.33
2018-10-17T03:46:09.713Z,15.80
2018-10-17T03:48:38.006Z,14.83
2018-10-17T03:51:06.378Z,14.40
2018-10-17T03:53:34.493Z,13.90
2018-10-17T03:56:02.626Z,13.63
2018-10-17T03:58:30.636Z,13.67
2018-10-17T04:00:58.753Z,14.87
2018-10-17T04:03:26.778Z,15.10
2018-10-17T04:05:54.854Z,14.23
2018-10-17T04:08:22.918Z,14.87
2018-10-17T04:10:50.972Z,14.90
2018-10-17T04:13:19.023Z,13.93
2018-10-17T04:15:47.085Z,15.27
2018-10-17T04:18:15.132Z,15.07
2018-10-17T04:20:43.280Z,15.17
2018-10-17T04:23:11.385Z,15.50
2018-10-17T04:25:39.456Z,15.00
2018-10-17T04:28:07.541Z,14.53
2018-10-17T04:30:35.692Z,14.73
2018-10-17T04:33:03.812Z,13.17
2018-10-17T04:35:31.872Z,14.03
2018-10-17T04:37:59.900Z,14.63
2018-10-17T04:40:27.937Z,13.93
2018-10-17T04:42:56.016Z,15.17
2018-10-17T04:45:26.190Z,15.80
2018-10-17T04:47:54.224Z,16.23
2018-10-17T04:50:22.282Z,16.30
2018-10-17T04:52:50.312Z,16.37
2018-10-17T04:55:18.488Z,16.63
2018-10-17T04:57:46.713Z,16.20
2018-10-17T05:00:14.787Z,12.13
2018-10-17T05:02:42.822Z,12.47
2018-10-17T05:05:10.888Z,14.67
2018-10-17T05:07:39.088Z,16.20
2018-10-17T05:10:07.199Z,16.93
2018-10-17T05:12:35.413Z,16.37
2018-10-17T05:15:03.677Z,17.03
2018-10-17T05:17:31.836Z,17.83
2018-10-17T05:20:00.042Z,16.10
2018-10-17T05:22:28.096Z,15.00
2018-10-17T05:24:56.192Z,14.40
2018-10-17T05:27:24.268Z,17.77
2018-10-17T05:29:52.367Z,17.17
2018-10-17T05:32:20.321Z,16.67
2018-10-17T05:34:48.407Z,17.83
2018-10-17T05:37:16.743Z,17.37
2018-10-17T05:39:44.651Z,15.07
2018-10-17T05:42:12.686Z,18.60
2018-10-17T05:47:15.280Z,17.40
2018-10-17T05:49:43.305Z,17.73
2018-10-17T05:52:11.361Z,18.60
2018-10-17T05:54:39.454Z,18.13
2018-10-17T05:57:07.494Z,17.77
2018-10-17T05:59:35.530Z,18.30
2018-10-17T06:02:03.774Z,16.67
2018-10-17T06:04:31.785Z,17.50
2018-10-17T06:06:59.872Z,18.40
2018-10-17T06:09:27.926Z,14.60
2018-10-17T06:11:56.337Z,15.50
2018-10-17T06:14:24.598Z,16.17
2018-10-17T06:16:52.797Z,16.77
2018-10-17T06:19:20.735Z,15.27
2018-10-17T06:21:48.837Z,15.40
2018-10-17T06:24:16.981Z,16.77
2018-10-17T06:26:45.074Z,17.13
2018-10-17T06:29:14.655Z,17.60
2018-10-17T06:31:42.765Z,17.27
2018-10-17T06:34:11.093Z,17.77
2018-10-17T06:36:39.059Z,17.27
2018-10-17T06:39:08.148Z,18.37
2018-10-17T06:41:36.274Z,15.37
2018-10-17T06:44:05.088Z,16.50
2018-10-17T06:46:33.190Z,17.97
2018-10-17T06:49:01.393Z,17.70
2018-10-17T06:51:29.464Z,18.13
2018-10-17T06:53:58.692Z,18.23
2018-10-17T06:56:27.061Z,17.87
2018-10-17T06:58:55.148Z,19.17
2018-10-17T07:01:23.201Z,17.23
2018-10-17T07:03:51.298Z,18.07
2018-10-17T07:06:19.842Z,15.13
2018-10-17T07:08:47.922Z,15.63
2018-10-17T07:11:16.132Z,15.13
2018-10-17T07:13:44.174Z,16.37
2018-10-17T07:16:12.251Z,19.53
2018-10-17T07:18:40.334Z,16.90
2018-10-17T07:21:08.397Z,16.33
2018-10-17T07:23:36.628Z,18.50
2018-10-17T07:26:05.679Z,17.37
2018-10-17T07:28:33.850Z,14.80
2018-10-17T07:31:02.062Z,17.53
2018-10-17T07:33:30.148Z,15.00
2018-10-17T07:35:58.257Z,17.47
2018-10-17T07:38:26.342Z,14.33
2018-10-17T07:40:54.409Z,17.37
2018-10-17T07:43:22.456Z,15.20
2018-10-17T07:45:50.643Z,17.10
2018-10-17T07:48:18.894Z,18.53
2018-10-17T07:50:46.961Z,14.27
2018-10-17T07:53:15.117Z,18.83
2018-10-17T07:55:43.861Z,18.20
2018-10-17T07:58:11.938Z,17.30
2018-10-17T08:00:40.654Z,14.90
2018-10-17T08:03:08.755Z,18.27
2018-10-17T08:05:36.816Z,17.40
2018-10-17T08:08:05.964Z,16.07
2018-10-17T08:10:34.051Z,18.63
2018-10-17T08:13:02.177Z,17.80
2018-10-17T08:15:30.283Z,17.73
2018-10-17T08:17:58.467Z,17.63
2018-10-17T08:20:26.469Z,16.47
2018-10-17T08:22:54.556Z,18.63
2018-10-17T08:25:23.639Z,15.57
2018-10-17T08:27:51.753Z,21.97
2018-10-17T08:30:20.770Z,21.83
2018-10-17T08:32:48.873Z,18.43
2018-10-17T08:35:18.152Z,22.43
2018-10-17T08:37:46.548Z,17.80
2018-10-17T08:40:14.257Z,17.17
2018-10-17T08:42:42.362Z,19.23
2018-10-17T08:45:10.489Z,17.83
2018-10-17T08:47:38.458Z,17.17
2018-10-17T08:50:06.682Z,19.07
2018-10-17T08:52:34.765Z,18.70
2018-10-17T08:55:02.935Z,18.80
2018-10-17T08:57:31.303Z,18.33
2018-10-17T08:59:59.385Z,19.07
2018-10-17T09:02:27.421Z,18.27
2018-10-17T09:04:55.605Z,19.40
2018-10-17T09:07:24.846Z,19.97
2018-10-17T09:09:52.973Z,20.77
2018-10-17T09:12:21.145Z,21.37
2018-10-17T09:14:49.321Z,19.23
2018-10-17T09:17:17.621Z,19.83
2018-10-17T09:19:45.836Z,16.90
2018-10-17T09:22:14.108Z,16.63
2018-10-17T09:24:42.770Z,20.37
2018-10-17T12:16:19.364Z,27.67
2018-10-17T12:18:47.487Z,26.63
2018-10-17T12:21:15.725Z,27.37
2018-10-17T12:23:43.767Z,25.13
2018-10-17T12:26:11.949Z,25.17
2018-10-17T12:28:40.032Z,24.35
2018-10-17T12:31:08.122Z,28.77
2018-10-17T12:33:36.177Z,22.03
2018-10-17T12:36:04.708Z,26.00
2018-10-17T12:38:32.770Z,18.97
2018-10-17T12:41:01.122Z,21.47
2018-10-17T12:43:29.008Z,23.07
2018-10-17T12:45:57.092Z,23.90
2018-10-17T12:48:25.307Z,23.80
2018-10-17T12:50:53.382Z,27.33
2018-10-17T12:53:21.457Z,27.53
2018-10-17T12:55:49.559Z,27.10
2018-10-17T12:58:17.639Z,25.33
2018-10-17T13:00:45.718Z,28.50
2018-10-17T13:03:13.771Z,24.53
2018-10-17T13:05:41.869Z,25.40
2018-10-17T13:08:09.938Z,28.63
2018-10-17T13:10:37.964Z,24.83
2018-10-17T13:13:06.110Z,24.80
2018-10-17T13:15:34.164Z,22.37
2018-10-17T13:18:02.280Z,29.13
2018-10-17T13:20:30.370Z,26.27
2018-10-17T13:22:58.508Z,29.50
2018-10-17T13:25:26.566Z,23.07
2018-10-17T13:27:54.631Z,18.60
2018-10-17T13:30:22.724Z,26.63
2018-10-17T13:32:50.868Z,21.63
2018-10-17T13:35:18.970Z,21.47
2018-10-17T13:37:47.027Z,27.90
2018-10-17T13:40:15.112Z,28.50
2018-10-17T13:42:43.434Z,24.00
2018-10-17T13:45:11.563Z,27.70
2018-10-17T13:47:39.683Z,27.23
2018-10-17T13:50:07.856Z,24.67
2018-10-17T13:52:35.930Z,28.73
2018-10-17T13:55:04.263Z,23.73
2018-10-17T13:57:32.640Z,25.97
2018-10-17T14:00:00.790Z,25.07
2018-10-17T14:02:28.964Z,25.20
2018-10-17T14:04:57.036Z,26.40
2018-10-17T14:07:25.113Z,23.93
2018-10-17T14:09:53.277Z,24.87
2018-10-17T14:12:21.439Z,25.87
2018-10-17T14:14:49.586Z,25.10
2018-10-17T14:17:18.049Z,24.87
2018-10-17T14:19:46.201Z,26.03
2018-10-17T14:22:14.266Z,26.43
2018-10-17T14:24:42.362Z,27.13
2018-10-17T14:27:10.842Z,26.30
2018-10-17T14:29:39.002Z,26.93
2018-10-17T14:32:07.050Z,25.07
2018-10-17T14:34:35.213Z,26.57
2018-10-17T14:37:03.377Z,25.60
2018-10-17T14:39:31.749Z,23.40
2018-10-17T14:41:59.909Z,24.63
2018-10-17T14:44:27.972Z,24.37
2018-10-17T14:46:56.136Z,25.53
2018-10-17T14:49:24.282Z,23.43
2018-10-17T14:51:52.385Z,27.33
2018-10-17T14:54:20.537Z,23.57
2018-10-17T14:56:48.618Z,28.93
2018-10-17T14:59:16.747Z,25.30
2018-10-17T15:01:44.837Z,26.37
2018-10-17T15:04:12.970Z,29.23
2018-10-17T15:06:41.126Z,29.53
2018-10-17T15:09:09.275Z,27.23
2018-10-17T15:11:37.343Z,29.97
2018-10-17T15:14:05.518Z,24.40
2018-10-17T15:16:33.664Z,31.37
2018-10-17T15:19:01.764Z,29.50
2018-10-17T15:21:29.926Z,28.93
2018-10-17T15:23:58.060Z,34.37
2018-10-17T15:26:26.137Z,32.43
2018-10-17T15:28:54.314Z,35.30
2018-10-17T15:31:22.497Z,29.53
2018-10-17T15:33:50.629Z,34.83
2018-10-17T15:36:18.783Z,32.57
2018-10-17T15:38:46.817Z,33.40
2018-10-17T15:41:14.922Z,34.27
2018-10-17T15:43:43.131Z,36.43
2018-10-17T15:46:11.151Z,37.23
2018-10-17T15:48:39.260Z,35.60
2018-10-17T15:51:07.436Z,35.57
2018-10-17T15:53:35.429Z,31.17
2018-10-17T15:56:03.705Z,35.17
2018-10-17T15:58:31.864Z,38.30
2018-10-17T16:01:00.106Z,31.93
2018-10-17T16:03:28.055Z,37.83
2018-10-17T16:05:56.185Z,35.03
2018-10-17T16:08:24.265Z,29.43
2018-10-17T16:10:52.409Z,33.63
2018-10-17T16:13:20.459Z,27.83
2018-10-17T16:15:48.572Z,31.83
2018-10-17T16:18:16.792Z,28.67
2018-10-17T16:20:44.796Z,32.53
2018-10-17T16:23:12.898Z,22.90
2018-10-17T16:25:40.947Z,31.83
2018-10-17T16:28:09.028Z,29.47
2018-10-17T16:30:37.185Z,31.63
2018-10-17T16:33:05.262Z,26.13
2018-10-17T16:35:33.342Z,29.30
2018-10-17T16:38:01.446Z,31.13
2018-10-17T16:40:29.494Z,26.20
2018-10-17T16:42:57.607Z,28.40
2018-10-17T16:45:25.681Z,33.53
2018-10-17T16:47:53.796Z,24.70
2018-10-17T16:50:21.998Z,36.00
2018-10-17T16:52:49.986Z,31.33
2018-10-17T16:55:18.042Z,32.10
2018-10-17T16:57:46.187Z,29.03
2018-10-17T17:00:14.366Z,31.50
2018-10-17T17:02:42.358Z,33.20
2018-10-17T17:05:10.593Z,26.83
2018-10-17T17:07:38.715Z,28.83
2018-10-17T17:10:07.323Z,26.87
2018-10-17T17:12:35.419Z,30.47
2018-10-17T17:15:03.641Z,29.40
2018-10-17T17:17:31.760Z,31.87
2018-10-17T17:19:59.835Z,29.73
2018-10-17T17:22:27.988Z,26.87
2018-10-17T17:24:56.131Z,23.13
2018-10-17T17:27:24.223Z,32.73
2018-10-17T17:29:52.505Z,32.10
2018-10-17T17:32:20.610Z,30.60
2018-10-17T17:34:49.271Z,31.97
2018-10-17T17:37:17.403Z,29.70
2018-10-17T17:39:45.550Z,31.07
2018-10-17T17:42:13.762Z,28.47
2018-10-17T17:44:42.094Z,31.07
2018-10-17T17:47:10.168Z,28.47
2018-10-17T17:49:38.432Z,26.33
2018-10-17T17:52:06.831Z,31.37
2018-10-17T17:54:35.098Z,27.57
2018-10-17T17:57:03.374Z,27.80
2018-10-17T17:59:31.459Z,30.07
2018-10-17T18:01:59.742Z,27.93
2018-10-17T18:04:27.975Z,25.67
2018-10-17T18:06:56.017Z,27.60
2018-10-17T18:09:24.526Z,30.30
2018-10-17T18:11:52.596Z,31.33
2018-10-17T18:14:21.026Z,29.47
2018-10-17T18:16:49.080Z,30.93
2018-10-17T18:19:17.162Z,30.70
2018-10-17T18:21:45.451Z,22.90
2018-10-17T18:24:13.522Z,31.93
2018-10-17T18:26:41.653Z,31.03
2018-10-17T18:29:09.815Z,27.20
2018-10-17T18:31:37.949Z,25.27
2018-10-17T18:34:06.105Z,27.90
2018-10-17T18:36:34.143Z,28.77
2018-10-17T18:39:02.238Z,29.10
2018-10-17T18:41:30.374Z,32.40
2018-10-17T18:43:58.534Z,26.40
2018-10-17T18:46:26.645Z,31.87
2018-10-17T18:48:54.732Z,25.53
2018-10-17T18:51:22.847Z,27.73
2018-10-17T18:53:50.969Z,31.23
2018-10-17T18:56:19.236Z,23.70
2018-10-17T18:58:47.239Z,23.00
2018-10-17T19:01:15.355Z,32.73
2018-10-17T19:03:43.853Z,27.40
2018-10-17T19:06:11.986Z,32.47
2018-10-17T19:08:40.079Z,27.83
2018-10-17T19:11:08.284Z,31.63
2018-10-17T19:13:36.809Z,28.47
2018-10-17T19:16:05.350Z,28.60
2018-10-17T19:18:33.376Z,28.13
2018-10-17T19:21:01.902Z,29.10
2018-10-17T19:23:29.966Z,25.70
2018-10-17T19:25:58.073Z,30.30
2018-10-17T19:28:26.309Z,29.53
2018-10-17T19:30:54.473Z,31.77
2018-10-17T19:33:22.608Z,28.13
2018-10-17T19:35:50.784Z,27.67
2018-10-17T19:38:18.926Z,29.50
2018-10-17T19:40:47.101Z,27.83
2018-10-17T19:43:15.255Z,29.23
2018-10-17T19:45:43.383Z,27.97
2018-10-17T19:48:11.474Z,26.20
2018-10-17T19:50:39.628Z,25.37
2018-10-17T19:53:07.746Z,29.33
2018-10-17T19:55:35.810Z,28.37
2018-10-17T19:58:04.108Z,28.67
2018-10-17T20:00:32.319Z,28.17
2018-10-17T20:03:00.502Z,28.03
2018-10-17T20:05:28.737Z,26.80
2018-10-17T20:07:56.866Z,26.93
2018-10-17T20:10:24.982Z,27.50
2018-10-17T20:12:53.132Z,27.80
2018-10-17T20:15:21.283Z,29.90
2018-10-17T20:17:49.414Z,29.77
2018-10-17T20:20:17.566Z,32.20
2018-10-17T20:22:45.636Z,31.27
2018-10-17T20:25:13.959Z,32.87
2018-10-17T20:27:42.055Z,33.33
2018-10-17T20:30:10.170Z,35.00
2018-10-17T20:32:38.269Z,33.80
2018-10-17T20:35:06.516Z,35.17
2018-10-17T20:37:34.573Z,35.50
2018-10-17T20:40:02.708Z,36.83
2018-10-17T20:42:30.831Z,34.90
2018-10-17T20:44:58.922Z,35.27
2018-10-17T20:47:27.011Z,36.93
2018-10-17T20:49:55.123Z,35.50
2018-10-17T20:52:23.305Z,33.97
2018-10-17T20:54:51.459Z,37.07
2018-10-17T20:57:19.560Z,37.00
2018-10-17T20:59:47.639Z,37.43
2018-10-17T21:02:15.841Z,33.00
2018-10-17T21:04:43.873Z,32.37
2018-10-17T21:07:12.024Z,30.07
2018-10-17T21:09:40.125Z,37.67
2018-10-17T21:12:08.284Z,38.77
2018-10-17T21:14:36.391Z,33.00
2018-10-17T21:17:04.663Z,32.87
2018-10-17T21:19:32.824Z,31.93
2018-10-17T21:22:00.925Z,29.73
2018-10-17T21:24:28.993Z,36.17
2018-10-17T21:26:57.172Z,34.33
2018-10-17T21:29:25.233Z,30.13
2018-10-17T21:31:53.328Z,33.20
2018-10-17T21:34:21.430Z,35.13
2018-10-17T21:36:49.547Z,34.27
2018-10-17T21:39:17.624Z,32.97
2018-10-17T21:41:45.701Z,28.43
2018-10-17T21:44:13.950Z,32.33
2018-10-17T21:46:42.054Z,29.97
2018-10-17T21:49:10.199Z,29.20
2018-10-17T21:51:38.285Z,34.27
2018-10-17T21:54:06.423Z,32.67
2018-10-17T21:56:34.532Z,31.47
2018-10-17T21:59:02.615Z,29.97
2018-10-17T22:01:30.704Z,29.53
2018-10-17T22:03:58.829Z,29.10
2018-10-17T22:06:26.949Z,28.00
2018-10-17T22:08:55.082Z,31.47
2018-10-17T22:11:23.176Z,28.97
2018-10-17T22:13:51.356Z,29.07
2018-10-17T22:16:19.375Z,28.80
2018-10-17T22:18:47.519Z,29.17
2018-10-17T22:21:16.978Z,24.30
2018-10-17T22:23:45.096Z,25.20
2018-10-17T22:26:13.597Z,26.57
2018-10-17T22:28:41.604Z,26.07
2018-10-17T22:31:09.722Z,25.77
2018-10-17T22:33:37.878Z,23.97
2018-10-17T22:36:06.003Z,25.63
2018-10-17T22:38:34.077Z,25.27
2018-10-17T22:41:02.274Z,27.37
2018-10-17T22:43:30.455Z,24.67
2018-10-17T22:45:58.536Z,24.27
2018-10-17T22:48:26.635Z,28.97
2018-10-17T22:50:54.762Z,29.17
2018-10-17T22:53:22.918Z,23.60
2018-10-17T22:55:51.029Z,25.80
2018-10-17T22:58:19.111Z,25.93
2018-10-17T23:00:47.218Z,28.17
2018-10-17T23:03:15.340Z,23.33
2018-10-17T23:05:43.613Z,24.60
2018-10-17T23:08:11.798Z,26.77
2018-10-17T23:10:40.349Z,28.27
2018-10-17T23:13:08.377Z,27.07
2018-10-17T23:15:36.466Z,25.53
2018-10-17T23:18:04.785Z,25.10
2018-10-17T23:20:32.900Z,25.70
2018-10-17T23:23:00.989Z,24.47
2018-10-17T23:25:29.519Z,22.47
2018-10-17T23:27:57.642Z,25.67
2018-10-17T23:30:25.747Z,23.63
2018-10-17T23:32:53.785Z,23.87
2018-10-17T23:35:21.885Z,24.70
2018-10-17T23:37:50.033Z,25.20
2018-10-17T23:40:18.105Z,25.63
2018-10-17T23:42:46.271Z,23.90
2018-10-17T23:45:14.355Z,25.77
2018-10-17T23:47:42.458Z,24.33
2018-10-17T23:50:10.684Z,25.90
2018-10-17T23:52:38.647Z,23.67
2018-10-17T23:55:06.818Z,23.90
2018-10-17T23:57:34.908Z,24.77
